Terminal Aerodrome Forecast
Issued by NWS Jacksonville, FL

Home | Current Version | Previous Version | Text Only | Print | Product List | Glossary On
Versions: 1 2 3 4 5 6 7 8 9 10 11 12 13 14 15 16 17 18
000
FTUS42 KJAX 282300
TAFJAX
TAF
KJAX 282338Z 2900/2924 08006KT P6SM FEW050
     FM290100 VRB03KT P6SM SKC
     FM291700 11008KT P6SM SCT040 SCT070
     FM292100 12007KT P6SM VCSH BKN030 BKN070 BKN250=

USA.gov is the U.S. government's official web portal to all federal, state and local government web resources and services.